Time;durP1;ratioP1;P1;durP2;ratioP2;P2;SDS_P1;SDS_P2;PMS_P1;PMS_P2;Temp;Humidity;BMP_temperature;BMP_pressure;BME280_temperature;BME280_humidity;BME280_pressure;Samples;Min_cycle;Max_cycle;Signal;HPM_P1;HPM_P2
2022/05/11 00:01:52;;;;;;;2.20;0.98;;;;;;;15.57;58.65;101378.41;4995570;28;101040;-35
2022/05/11 00:04:18;;;;;;;2.58;1.00;;;;;;;15.55;59.03;101364.00;5013574;28;99122;-35
2022/05/11 00:06:43;;;;;;;4.25;1.45;;;;;;;15.52;59.21;101370.56;5012104;28;96664;-35
2022/05/11 00:09:11;;;;;;;7.88;1.35;;;;;;;15.46;58.98;101365.53;5013818;28;96794;-35
2022/05/11 00:11:37;;;;;;;5.50;1.05;;;;;;;15.43;58.64;101357.59;4999501;28;101417;-35
2022/05/11 00:14:03;;;;;;;2.83;1.30;;;;;;;15.42;58.67;101350.34;5018287;28;99860;-35
2022/05/11 00:16:30;;;;;;;3.55;1.13;;;;;;;15.43;58.57;101342.06;5018754;28;97254;-35
2022/05/11 00:18:55;;;;;;;5.10;1.13;;;;;;;15.43;58.49;101347.53;5052982;27;96839;-35
2022/05/11 00:21:21;;;;;;;5.97;0.85;;;;;;;15.49;58.41;101363.47;5036858;28;103721;-35
2022/05/11 00:23:47;;;;;;;7.95;1.30;;;;;;;15.45;58.87;101345.56;5037384;28;97771;-35
2022/05/11 00:26:12;;;;;;;3.97;1.10;;;;;;;15.39;58.91;101339.66;5019120;28;96759;-35
2022/05/11 00:28:38;;;;;;;4.07;0.82;;;;;;;15.38;59.37;101346.13;5037300;28;100406;-35
2022/05/11 00:31:03;;;;;;;2.50;1.00;;;;;;;15.38;58.75;101338.81;5036286;28;98814;-35
2022/05/11 00:33:29;;;;;;;1.30;0.95;;;;;;;15.40;59.02;101350.50;5037019;28;97868;-35
2022/05/11 00:35:54;;;;;;;2.50;0.70;;;;;;;15.36;58.97;101334.44;5037226;28;96579;-35
2022/05/11 00:38:24;;;;;;;3.25;1.20;;;;;;;15.41;59.75;101334.97;5037130;28;96816;-35
2022/05/11 00:40:59;;;;;;;1.33;0.73;;;;;;;15.42;59.06;101333.97;5018512;28;101196;-35
2022/05/11 00:43:32;;;;;;;2.97;1.00;;;;;;;15.40;59.33;101325.06;5036820;28;97289;-35
2022/05/11 00:46:20;;;;;;;4.03;1.55;;;;;;;15.45;59.69;101325.56;5018834;28;96582;-35
2022/05/11 00:51:39;;;;;;;2.08;1.02;;;;;;;15.42;59.60;101321.22;5037150;28;97139;-35
2022/05/11 00:54:06;;;;;;;3.72;1.00;;;;;;;15.43;58.73;101316.63;5018475;28;101159;-35
2022/05/11 00:56:36;;;;;;;4.60;1.25;;;;;;;15.39;59.38;101310.50;5018289;28;96561;-35
2022/05/11 00:59:14;;;;;;;3.92;1.20;;;;;;;15.44;59.09;101308.31;5018486;28;96773;-35
2022/05/11 01:01:40;;;;;;;4.95;1.52;;;;;;;15.45;59.01;101306.47;5018165;28;100678;-35
2022/05/11 01:04:10;;;;;;;6.57;1.38;;;;;;;15.48;59.28;101307.09;5018137;28;99530;-35
2022/05/11 01:06:36;;;;;;;5.45;0.93;;;;;;;15.53;59.67;101316.81;5018616;28;96657;-35
2022/05/11 01:09:04;;;;;;;9.02;1.67;;;;;;;15.51;58.97;101301.41;5018562;28;96804;-35
2022/05/11 01:11:30;;;;;;;6.30;1.55;;;;;;;15.41;59.67;101300.34;5013748;28;103901;-35
2022/05/11 01:13:57;;;;;;;5.63;1.25;;;;;;;15.42;59.74;101306.69;5015145;28;101447;-35
2022/05/11 01:16:23;;;;;;;3.00;1.30;;;;;;;15.37;60.38;101301.56;5014603;28;96702;-35
2022/05/11 01:18:49;;;;;;;5.82;1.33;;;;;;;15.37;60.83;101292.50;5015051;28;96845;-35
2022/05/11 01:21:14;;;;;;;6.07;2.20;;;;;;;15.40;59.70;101300.50;5015855;28;97464;-35
2022/05/11 01:23:58;;;;;;;2.25;1.35;;;;;;;15.40;60.26;101287.69;5014347;28;125989;-35
2022/05/11 01:26:23;;;;;;;3.25;1.42;;;;;;;15.32;60.01;101294.72;5047924;27;96586;-35
2022/05/11 01:28:54;;;;;;;5.57;1.75;;;;;;;15.33;59.94;101296.47;5015266;28;116777;-35
2022/05/11 01:31:20;;;;;;;2.50;1.17;;;;;;;15.29;59.97;101295.81;5014464;28;101407;-35
2022/05/11 01:33:48;;;;;;;4.43;1.52;;;;;;;15.30;59.96;101289.34;5014309;28;100758;-35
2022/05/11 01:36:27;;;;;;;5.35;1.73;;;;;;;15.30;60.18;101294.81;5031440;28;96579;-35
2022/05/11 01:38:56;;;;;;;3.70;1.40;;;;;;;15.25;60.01;101273.34;5048892;27;96782;-35
2022/05/11 01:41:26;;;;;;;4.72;0.98;;;;;;;15.27;59.38;101287.72;5014345;28;101221;-35
2022/05/11 01:43:53;;;;;;;2.28;0.95;;;;;;;15.19;60.41;101268.34;5031225;28;100760;-35
2022/05/11 01:46:19;;;;;;;1.50;0.80;;;;;;;15.27;59.80;101276.81;5014046;28;96646;-35
2022/05/11 01:48:44;;;;;;;5.03;1.10;;;;;;;15.27;59.50;101275.94;5014452;28;96928;-35
2022/05/11 01:51:15;;;;;;;2.65;1.30;;;;;;;15.32;59.23;101279.19;5015659;28;97689;-35
2022/05/11 01:53:41;;;;;;;2.55;1.05;;;;;;;15.25;59.54;101272.44;5014241;28;101492;-35
2022/05/11 01:56:09;;;;;;;4.95;1.10;;;;;;;15.31;59.22;101287.53;5014330;28;96573;-35
2022/05/11 01:58:36;;;;;;;4.07;1.13;;;;;;;15.29;59.91;101280.28;5048161;27;96833;-35
2022/05/11 02:01:02;;;;;;;3.08;0.80;;;;;;;15.26;59.30;101279.66;5014098;28;101126;-35
2022/05/11 02:03:27;;;;;;;1.23;0.60;;;;;;;15.25;59.38;101278.81;5014271;28;100875;-35
2022/05/11 02:08:39;;;;;;;2.80;0.75;;;;;;;15.21;58.92;101279.16;5013754;28;96559;-35
2022/05/11 02:11:06;;;;;;;4.22;0.75;;;;;;;15.19;58.54;101272.94;5013427;28;128049;-34
2022/05/11 02:13:32;;;;;;;1.60;0.70;;;;;;;15.18;58.69;101273.91;5013693;28;100897;-35
2022/05/11 02:15:58;;;;;;;1.92;1.02;;;;;;;15.18;58.42;101266.59;4997291;28;96561;-35
2022/05/11 02:18:24;;;;;;;5.15;0.52;;;;;;;15.10;57.85;101255.38;4997307;28;97059;-35
2022/05/11 02:20:49;;;;;;;2.08;0.75;;;;;;;15.15;58.10;101257.75;5030886;28;97974;-35
2022/05/11 02:23:17;;;;;;;2.33;0.65;;;;;;;15.08;57.90;101260.06;5014746;28;99457;-35
2022/05/11 02:25:45;;;;;;;3.75;0.57;;;;;;;15.16;58.16;101265.84;4997310;28;96646;-35
2022/05/11 02:28:11;;;;;;;1.27;0.50;;;;;;;15.14;58.03;101248.72;4997482;28;96881;-35
2022/05/11 02:30:36;;;;;;;0.68;0.43;;;;;;;15.17;57.67;101262.13;5013610;28;100770;-35
2022/05/11 02:33:02;;;;;;;2.17;0.57;;;;;;;15.07;57.46;101241.97;5014789;28;97835;-35
2022/05/11 02:35:27;;;;;;;4.82;1.02;;;;;;;15.06;57.36;101240.19;5014769;28;96628;-35
2022/05/11 02:37:56;;;;;;;1.25;0.63;;;;;;;15.03;57.37;101246.75;5014908;28;96765;-35
2022/05/11 02:40:34;;;;;;;3.03;0.50;;;;;;;15.07;57.48;101242.81;4996780;28;100953;-35
2022/05/11 02:43:02;;;;;;;1.50;0.43;;;;;;;15.02;57.42;101244.16;4996985;28;101271;-35
2022/05/11 02:45:29;;;;;;;2.28;0.52;;;;;;;14.98;57.66;101248.09;5014798;28;96612;-35
2022/05/11 02:47:56;;;;;;;1.20;0.40;;;;;;;14.92;57.13;101226.72;4997014;28;96571;-35
2022/05/11 02:50:28;;;;;;;0.47;0.40;;;;;;;14.91;57.32;101234.03;4996703;28;100882;-35
2022/05/11 02:52:54;;;;;;;0.70;0.55;;;;;;;14.93;57.28;101234.78;4996936;28;101393;-35
2022/05/11 02:55:20;;;;;;;0.95;0.55;;;;;;;14.94;57.47;101235.66;4996789;28;96696;-35
2022/05/11 02:57:46;;;;;;;1.02;0.38;;;;;;;15.00;57.84;101240.69;4996681;28;96890;-35
2022/05/11 03:00:15;;;;;;;6.40;0.63;;;;;;;14.93;57.77;101237.53;5012709;28;101264;-35
2022/05/11 03:02:40;;;;;;;0.98;0.60;;;;;;;14.96;57.45;101233.69;4996351;28;100697;-35
2022/05/11 03:05:06;;;;;;;1.15;0.50;;;;;;;14.97;57.30;101240.88;5014976;28;96407;-35
2022/05/11 03:07:32;;;;;;;5.93;0.75;;;;;;;14.91;57.15;101224.97;4996688;28;96992;-35
2022/05/11 03:09:57;;;;;;;2.10;0.50;;;;;;;14.93;57.36;101226.59;5014421;28;98025;-35
2022/05/11 03:12:23;;;;;;;5.55;0.70;;;;;;;14.94;57.45;101230.19;5013262;28;115487;-35
2022/05/11 03:14:49;;;;;;;2.28;0.38;;;;;;;14.92;57.45;101224.88;5014702;28;96511;-35
2022/05/11 03:17:16;;;;;;;1.02;0.40;;;;;;;14.92;57.20;101222.16;4996514;28;96851;-35
2022/05/11 03:19:41;;;;;;;4.32;0.57;;;;;;;14.90;57.51;101224.13;4996156;28;100823;-35
2022/05/11 03:22:06;;;;;;;4.15;0.75;;;;;;;14.90;57.25;101218.66;5013494;28;122806;-35
2022/05/11 03:24:32;;;;;;;2.28;0.45;;;;;;;14.92;56.98;101221.25;5014256;28;96495;-35
2022/05/11 03:26:57;;;;;;;1.55;0.60;;;;;;;14.91;57.03;101208.63;5013898;28;107545;-35
2022/05/11 03:29:22;;;;;;;1.77;0.43;;;;;;;14.93;56.66;101217.56;5013189;28;126547;-35
2022/05/11 03:34:36;;;;;;;0.93;0.35;;;;;;;14.82;56.79;101207.44;5014778;28;96491;-35
2022/05/11 03:37:01;;;;;;;0.95;0.40;;;;;;;14.82;56.85;101200.09;4996249;28;96903;-35
2022/05/11 03:39:27;;;;;;;1.63;0.60;;;;;;;14.88;56.88;101208.84;5014089;28;97545;-35
2022/05/11 03:41:52;;;;;;;0.70;0.50;;;;;;;14.77;56.54;101190.53;5013573;28;122265;-35
2022/05/11 03:44:17;;;;;;;1.58;0.30;;;;;;;14.86;56.64;101212.53;5013683;28;115128;-35
2022/05/11 03:46:42;;;;;;;0.73;0.22;;;;;;;14.81;56.76;101203.84;5013692;28;106611;-35
2022/05/11 03:49:09;;;;;;;1.58;0.60;;;;;;;14.85;56.57;101209.94;5016362;28;97931;-35
2022/05/11 03:51:35;;;;;;;2.38;0.73;;;;;;;14.74;56.59;101197.09;5017226;28;99258;-35
2022/05/11 03:54:00;;;;;;;2.03;0.50;;;;;;;14.87;56.56;101213.41;5017543;28;96699;-35
2022/05/11 03:56:28;;;;;;;3.47;0.57;;;;;;;14.85;56.55;101207.22;5016700;28;116701;-35
2022/05/11 03:58:55;;;;;;;0.57;0.43;;;;;;;14.79;56.73;101192.16;5017065;28;99446;-35
2022/05/11 04:01:20;;;;;;;0.60;0.38;;;;;;;14.79;56.47;101197.63;4999187;28;100759;-35
2022/05/11 04:03:46;;;;;;;1.48;0.40;;;;;;;14.77;56.06;101205.03;5017444;28;96585;-35
2022/05/11 04:06:11;;;;;;;4.35;0.77;;;;;;;14.74;56.29;101191.63;5017843;28;96826;-35
2022/05/11 04:08:36;;;;;;;3.08;0.70;;;;;;;14.74;56.08;101190.78;5016763;28;99240;-35
2022/05/11 04:11:02;;;;;;;2.83;0.45;;;;;;;14.69;56.26;101187.53;5016926;28;97956;-35
2022/05/11 04:13:27;;;;;;;0.70;0.40;;;;;;;14.68;56.05;101180.31;5016773;28;96583;-35
2022/05/11 04:15:53;;;;;;;1.08;0.40;;;;;;;14.72;56.19;101201.78;5016405;28;117928;-35
2022/05/11 04:18:19;;;;;;;4.88;1.08;;;;;;;14.72;56.61;101204.50;5017481;28;97201;-34
2022/05/11 04:20:45;;;;;;;2.40;0.57;;;;;;;14.73;56.35;101199.91;5017036;28;97789;-35
2022/05/11 04:23:10;;;;;;;2.55;0.73;;;;;;;14.63;55.89;101178.81;4999079;28;96577;-35
2022/05/11 04:25:36;;;;;;;1.38;0.65;;;;;;;14.69;56.01;101196.56;5017210;28;96660;-35
2022/05/11 04:28:06;;;;;;;2.58;0.25;;;;;;;14.67;56.10;101190.34;4998835;28;101161;-35
2022/05/11 04:30:32;;;;;;;1.05;0.50;;;;;;;14.67;56.24;101193.06;4999020;28;100877;-35
2022/05/11 04:33:00;;;;;;;0.47;0.28;;;;;;;14.63;56.04;101184.25;5016293;28;116785;-35
2022/05/11 04:35:32;;;;;;;3.00;0.40;;;;;;;14.66;56.27;101202.25;5017213;28;96846;-35
2022/05/11 04:37:58;;;;;;;1.40;0.43;;;;;;;14.65;56.10;101190.44;4997903;28;101319;-35
2022/05/11 04:40:25;;;;;;;3.95;0.55;;;;;;;14.60;56.48;101194.50;5016689;28;97309;-34
2022/05/11 04:42:50;;;;;;;5.63;0.55;;;;;;;14.59;55.99;101204.53;4998833;28;96820;-35
2022/05/11 04:45:16;;;;;;;1.00;0.40;;;;;;;14.63;56.26;101202.44;5016894;28;96776;-34
2022/05/11 04:47:43;;;;;;;1.27;0.50;;;;;;;14.57;56.13;101195.59;5031880;28;102157;-35
2022/05/11 04:50:10;;;;;;;2.30;0.45;;;;;;;14.54;56.51;101200.41;5016269;28;99676;-35
2022/05/11 04:52:36;;;;;;;0.38;0.20;;;;;;;14.58;56.22;101212.81;4998648;28;96705;-35
2022/05/11 04:55:01;;;;;;;3.38;0.40;;;;;;;14.55;56.25;101197.56;5017283;28;96703;-35
2022/05/11 04:57:27;;;;;;;3.33;0.52;;;;;;;14.51;55.94;101195.13;5014813;28;100934;-35
2022/05/11 04:59:53;;;;;;;2.00;0.47;;;;;;;14.55;56.05;101204.88;5016025;28;98686;-35
2022/05/11 05:02:22;;;;;;;6.63;0.60;;;;;;;14.54;56.11;101184.03;5015906;28;96624;-35
2022/05/11 05:04:48;;;;;;;1.17;0.68;;;;;;;14.44;56.20;101179.25;4998463;28;96779;-35
2022/05/11 05:07:14;;;;;;;2.53;0.43;;;;;;;14.54;56.27;101200.41;4998133;28;100880;-34
2022/05/11 05:09:41;;;;;;;1.25;0.32;;;;;;;14.52;55.99;101186.84;4998063;28;100930;-35
2022/05/11 05:12:08;;;;;;;5.05;0.70;;;;;;;14.53;56.27;101194.03;5015582;28;96885;-35
2022/05/11 05:14:33;;;;;;;0.68;0.30;;;;;;;14.57;56.16;101200.19;5016307;28;96973;-35
2022/05/11 05:17:03;;;;;;;1.17;0.28;;;;;;;14.58;55.69;101210.09;5015536;28;98914;-35
2022/05/11 05:19:29;;;;;;;0.70;0.40;;;;;;;14.56;55.93;101190.25;4998270;28;101733;-35
2022/05/11 05:21:55;;;;;;;1.52;0.60;;;;;;;14.52;56.00;101197.75;4998128;28;96720;-35
2022/05/11 05:24:20;;;;;;;1.52;0.38;;;;;;;14.67;55.71;101198.53;5015879;28;96855;-35
2022/05/11 05:26:45;;;;;;;9.38;0.50;;;;;;;14.74;56.17;101209.88;5014896;28;126835;-35
2022/05/11 05:31:54;;;;;;;0.50;0.32;;;;;;;14.76;55.38;101200.59;5016292;28;96844;-35
2022/05/11 05:34:20;;;;;;;5.40;0.50;;;;;;;14.85;55.28;101209.94;5016074;28;96633;-35
2022/05/11 05:36:45;;;;;;;6.53;0.55;;;;;;;14.89;55.50;101206.00;5015694;28;99264;-35
2022/05/11 05:39:10;;;;;;;1.23;0.57;;;;;;;15.00;55.50;101218.84;5014596;28;127774;-35
2022/05/11 05:41:36;;;;;;;1.15;0.32;;;;;;;15.06;55.40;101219.28;5015249;28;110626;-35
2022/05/11 05:44:01;;;;;;;3.90;0.75;;;;;;;14.98;55.18;101202.59;5016279;28;97783;-35
2022/05/11 05:46:27;;;;;;;2.88;0.47;;;;;;;15.14;54.93;101215.97;4997453;28;99542;-35
2022/05/11 05:48:52;;;;;;;1.27;0.30;;;;;;;15.17;54.74;101209.41;5015444;28;97891;-35
2022/05/11 05:51:19;;;;;;;3.75;0.45;;;;;;;15.16;54.66;101208.53;5015140;28;99980;-35
2022/05/11 05:53:45;;;;;;;1.50;0.85;;;;;;;15.22;54.47;101196.28;4997831;28;96818;-35
2022/05/11 05:56:12;;;;;;;1.15;0.52;;;;;;;15.38;54.63;101206.91;5015254;28;99139;-35
2022/05/11 05:58:44;;;;;;;1.92;0.40;;;;;;;15.48;54.71;101197.03;5015538;28;97332;-35
2022/05/11 06:01:14;;;;;;;2.40;0.43;;;;;;;15.56;54.22;101196.44;4997689;28;96695;-35
2022/05/11 06:03:40;;;;;;;2.45;0.73;;;;;;;15.69;54.20;101211.75;4997530;28;96783;-35
2022/05/11 06:06:07;;;;;;;9.48;0.60;;;;;;;15.79;54.48;101200.16;5015425;28;98041;-35
2022/05/11 06:08:33;;;;;;;4.03;0.57;;;;;;;15.85;54.37;101205.13;4997420;28;101063;-35
2022/05/11 06:11:06;;;;;;;4.53;0.50;;;;;;;15.87;54.29;101208.59;5014539;28;96545;-35
2022/05/11 06:13:32;;;;;;;6.93;0.90;;;;;;;15.88;54.59;101202.16;5013975;28;96892;-35
2022/05/11 06:15:58;;;;;;;2.90;0.60;;;;;;;15.81;54.66;101203.63;5012875;28;101087;-35
2022/05/11 06:18:25;;;;;;;2.70;0.65;;;;;;;15.77;54.74;101205.72;5015088;28;99992;-35
2022/05/11 06:20:55;;;;;;;4.95;0.88;;;;;;;15.69;54.99;101209.03;5015508;28;96538;-35
2022/05/11 06:23:21;;;;;;;1.40;0.57;;;;;;;15.68;54.69;101209.13;5014056;28;96682;-35
2022/05/11 06:25:49;;;;;;;2.78;0.40;;;;;;;15.65;54.76;101207.50;5013507;28;101421;-35
2022/05/11 06:28:15;;;;;;;0.45;0.35;;;;;;;15.64;55.12;101207.66;4996647;28;100957;-35
2022/05/11 06:30:40;;;;;;;3.83;0.60;;;;;;;15.66;55.26;101213.81;5015446;28;96585;-35
2022/05/11 06:33:05;;;;;;;4.43;1.13;;;;;;;15.67;54.92;101211.00;5015621;28;96815;-35
2022/05/11 06:35:30;;;;;;;1.52;0.47;;;;;;;15.67;54.90;101207.41;5014167;28;126616;-35
2022/05/11 06:38:01;;;;;;;3.92;0.77;;;;;;;15.58;54.99;101203.50;5013449;28;98261;-35
2022/05/11 06:40:27;;;;;;;2.03;0.80;;;;;;;15.69;54.54;101211.75;5014555;28;96579;-35
2022/05/11 06:42:52;;;;;;;1.90;0.70;;;;;;;15.65;54.88;101199.31;5013410;28;119458;-35
2022/05/11 06:45:19;;;;;;;2.53;0.70;;;;;;;15.72;54.60;101199.75;5013706;28;126552;-35
2022/05/11 06:47:44;;;;;;;2.90;0.50;;;;;;;15.73;54.48;101206.06;5014614;28;99370;-35
2022/05/11 06:50:11;;;;;;;2.70;0.20;;;;;;;15.91;54.05;101193.72;5014621;28;97143;-35
2022/05/11 06:52:37;;;;;;;1.88;0.40;;;;;;;16.12;53.35;101189.28;5013542;28;96902;-35
2022/05/11 07:00:32;;;;;;;2.83;0.68;;;;;;;16.27;53.14;101189.91;5015424;28;96526;-35
2022/05/11 07:02:58;;;;;;;2.13;0.32;;;;;;;16.32;53.14;101198.63;5014871;28;96832;-35
2022/05/11 07:05:23;;;;;;;3.80;0.40;;;;;;;16.56;52.64;101194.91;5013805;28;103280;-35
2022/05/11 07:07:51;;;;;;;1.63;0.52;;;;;;;16.79;52.26;101186.72;4996198;28;100770;-35
2022/05/11 07:10:17;;;;;;;0.65;0.40;;;;;;;17.07;51.81;101196.25;4996393;28;97852;-35
2022/05/11 07:12:48;;;;;;;1.60;0.50;;;;;;;17.16;51.83;101192.72;5015882;28;96878;-35
2022/05/11 07:15:18;;;;;;;4.47;1.05;;;;;;;17.11;51.73;101200.44;4996415;28;101347;-35
2022/05/11 07:17:55;;;;;;;1.25;0.30;;;;;;;17.12;50.90;101192.13;4996252;28;100874;-35
2022/05/11 07:20:27;;;;;;;1.13;0.40;;;;;;;17.02;51.10;101184.78;4996197;28;96574;-35
2022/05/11 07:22:53;;;;;;;2.35;0.50;;;;;;;17.18;51.25;101185.25;5016019;28;96659;-35
2022/05/11 07:25:21;;;;;;;1.20;0.38;;;;;;;17.38;50.90;101175.38;4999705;28;98902;-35
2022/05/11 07:27:47;;;;;;;0.55;0.40;;;;;;;17.62;50.92;101183.34;4999591;28;100823;-35
2022/05/11 07:30:19;;;;;;;0.40;0.30;;;;;;;17.63;49.76;101185.06;4999464;28;96606;-35
2022/05/11 07:32:44;;;;;;;0.68;0.40;;;;;;;17.62;50.60;101177.88;4999692;28;96637;-35
2022/05/11 07:35:10;;;;;;;2.17;0.17;;;;;;;17.63;49.38;101180.47;5017748;28;97978;-35
2022/05/11 07:37:35;;;;;;;4.40;0.43;;;;;;;17.78;50.19;101181.03;5017708;28;97787;-35
2022/05/11 07:40:01;;;;;;;2.38;0.68;;;;;;;17.79;48.64;101174.53;5017969;28;96591;-35
2022/05/11 07:42:27;;;;;;;3.15;0.85;;;;;;;17.87;50.01;101170.28;5016316;28;96854;-35
2022/05/11 07:44:53;;;;;;;3.20;0.47;;;;;;;18.12;49.19;101175.38;5016056;28;101638;-35
2022/05/11 07:47:20;;;;;;;0.80;0.43;;;;;;;18.28;48.94;101187.69;5017884;28;97422;-35
2022/05/11 07:49:46;;;;;;;1.73;0.50;;;;;;;18.20;49.40;101172.78;4999610;28;96613;-35
2022/05/11 07:52:11;;;;;;;2.47;0.32;;;;;;;18.29;49.13;101186.72;5017669;28;96822;-35
2022/05/11 07:54:38;;;;;;;1.85;0.47;;;;;;;18.54;48.74;101188.97;5016817;28;99395;-35
2022/05/11 07:59:56;;;;;;;2.45;0.47;;;;;;;19.04;47.64;101185.41;5017813;28;96581;-35
2022/05/11 08:02:27;;;;;;;0.63;0.30;;;;;;;19.24;47.17;101184.47;4999486;28;96699;-35
2022/05/11 08:05:05;;;;;;;3.47;0.60;;;;;;;19.17;45.84;101186.03;5017586;28;97543;-35
2022/05/11 08:07:46;;;;;;;5.20;0.47;;;;;;;19.17;46.41;101175.06;5017139;28;97943;-35
2022/05/11 08:10:50;;;;;;;8.00;0.70;;;;;;;19.37;47.00;101191.53;4999118;28;96648;-35
2022/05/11 08:13:16;;;;;;;1.80;0.32;;;;;;;19.56;46.35;101176.94;5014288;28;96751;-35
2022/05/11 08:15:46;;;;;;;1.85;0.55;;;;;;;19.54;46.30;101179.84;5016893;28;97951;-35
2022/05/11 08:18:13;;;;;;;3.88;0.43;;;;;;;19.49;46.76;101179.41;5016984;28;96901;-35
2022/05/11 08:20:42;;;;;;;3.30;0.82;;;;;;;19.64;46.61;101186.22;5016599;28;96484;-35
2022/05/11 08:23:09;;;;;;;1.10;0.47;;;;;;;19.96;45.83;101195.19;5017108;28;96730;-35
2022/05/11 08:25:36;;;;;;;1.33;0.32;;;;;;;19.90;45.45;101186.50;4998813;28;98804;-35
2022/05/11 08:28:02;;;;;;;4.72;0.80;;;;;;;20.04;46.19;101185.16;5016707;28;98851;-35
2022/05/11 08:33:26;;;;;;;8.95;0.98;;;;;;;20.46;45.77;101193.03;5016920;28;96518;-35
2022/05/11 08:36:00;;;;;;;2.88;0.90;;;;;;;20.39;45.47;101191.03;5017010;28;97892;-35
2022/05/11 08:38:29;;;;;;;3.13;0.75;;;;;;;20.32;45.34;101193.50;5017272;28;97296;-35
2022/05/11 08:40:59;;;;;;;3.05;0.70;;;;;;;20.40;45.38;101195.50;4998902;28;96602;-35
2022/05/11 08:43:31;;;;;;;1.90;0.52;;;;;;;20.30;45.88;101190.03;4998722;28;96844;-35
2022/05/11 08:46:03;;;;;;;4.85;1.20;;;;;;;20.19;45.35;101196.59;4998066;28;100895;-35
2022/05/11 08:48:51;;;;;;;5.90;1.25;;;;;;;20.22;46.13;101195.44;5015228;28;99498;-35
2022/05/11 08:51:41;;;;;;;4.60;1.05;;;;;;;20.40;45.27;101188.09;4998724;28;96565;-35
2022/05/11 08:54:29;;;;;;;3.00;0.93;;;;;;;20.40;45.66;101182.59;5016532;28;96656;-35
2022/05/11 08:56:55;;;;;;;2.88;0.75;;;;;;;20.53;44.63;101185.03;4998356;28;101252;-35
2022/05/11 08:59:25;;;;;;;7.28;0.93;;;;;;;20.34;46.08;101183.22;4998167;28;100975;-35
2022/05/11 09:02:00;;;;;;;3.63;0.82;;;;;;;20.74;46.15;101198.59;5016575;28;96743;-35
2022/05/11 09:04:38;;;;;;;6.55;1.02;;;;;;;20.83;45.84;101194.91;4998775;28;96835;-35
2022/05/11 09:07:03;;;;;;;2.25;0.82;;;;;;;21.04;45.59;101180.88;4998259;28;101074;-35
2022/05/11 09:09:29;;;;;;;10.88;1.40;;;;;;;21.28;45.49;101193.19;5016326;28;97848;-35
2022/05/11 09:11:55;;;;;;;4.68;0.85;;;;;;;21.39;45.18;101198.47;4997534;28;96995;-35
2022/05/11 09:14:31;;;;;;;5.45;0.95;;;;;;;21.48;45.29;101193.97;4998296;28;96783;-35
2022/05/11 09:16:57;;;;;;;9.75;1.27;;;;;;;21.64;45.17;101194.09;4997903;28;99091;-35
2022/05/11 09:19:34;;;;;;;5.10;1.05;;;;;;;21.59;45.28;101175.25;5014610;28;100766;-35
2022/05/11 09:22:16;;;;;;;5.22;0.93;;;;;;;21.44;44.87;101187.88;4998278;28;96599;-35
2022/05/11 09:24:50;;;;;;;3.60;1.08;;;;;;;21.52;45.33;101190.69;5016139;28;97037;-35
2022/05/11 09:27:26;;;;;;;2.28;0.47;;;;;;;21.71;44.46;101200.72;4997873;28;101158;-35
2022/05/11 09:30:21;;;;;;;2.67;0.75;;;;;;;21.68;44.94;101192.75;5016145;28;99331;-35
2022/05/11 09:32:47;;;;;;;5.70;0.90;;;;;;;21.74;44.11;101194.03;5016172;28;96621;-35
2022/05/11 09:35:20;;;;;;;1.77;0.57;;;;;;;21.81;43.03;101200.66;5016306;28;96813;-35
2022/05/11 09:37:57;;;;;;;3.33;0.95;;;;;;;21.79;42.58;101189.75;5015425;28;98027;-35
2022/05/11 09:40:23;;;;;;;2.83;0.70;;;;;;;21.88;43.58;101185.19;4997596;28;101064;-35
2022/05/11 09:42:50;;;;;;;6.55;0.60;;;;;;;22.10;42.75;101182.94;5016217;28;96571;-35
2022/05/11 09:45:43;;;;;;;1.20;0.50;;;;;;;22.23;42.39;101192.53;5014960;28;96852;-35
2022/05/11 09:48:30;;;;;;;11.15;1.02;;;;;;;22.43;41.87;101184.06;5014145;28;101278;-35
2022/05/11 09:51:22;;;;;;;7.15;0.93;;;;;;;22.51;41.93;101195.13;5015517;28;99146;-35
2022/05/11 09:53:52;;;;;;;3.50;0.55;;;;;;;22.54;41.23;101191.16;5014629;28;96629;-35
2022/05/11 09:56:32;;;;;;;3.75;0.63;;;;;;;22.61;40.60;101183.97;4998070;28;96734;-35
2022/05/11 09:59:15;;;;;;;3.90;1.42;;;;;;;22.74;41.26;101187.13;4997609;28;100605;-35
2022/05/11 10:01:41;;;;;;;2.03;0.60;;;;;;;22.94;41.03;101196.00;5015511;28;101272;-35
2022/05/11 10:04:08;;;;;;;2.28;0.60;;;;;;;22.84;38.97;101184.25;5015375;28;96622;-35
2022/05/11 10:06:50;;;;;;;1.05;0.45;;;;;;;22.96;40.77;101190.34;4980910;28;96888;-35
2022/05/11 10:09:20;;;;;;;10.40;1.40;;;;;;;23.11;40.76;101188.69;5014862;28;99082;-35
2022/05/11 10:11:50;;;;;;;5.18;0.52;;;;;;;23.12;41.04;101187.66;4997008;28;101128;-35
2022/05/11 10:22:57;;;;;;;7.03;0.75;;;;;;;23.36;40.21;101191.50;5015710;28;97075;-35
2022/05/11 10:25:28;;;;;;;4.72;0.63;;;;;;;23.35;38.92;101198.94;5015670;28;96618;-35
2022/05/11 10:28:05;;;;;;;3.30;0.82;;;;;;;23.20;40.05;101198.72;5013766;28;96699;-35
2022/05/11 10:30:57;;;;;;;1.63;0.68;;;;;;;23.40;39.99;101192.88;5029937;28;101632;-35
2022/05/11 10:33:28;;;;;;;5.53;0.82;;;;;;;23.40;40.38;101203.94;5013416;28;100911;-34
2022/05/11 10:36:03;;;;;;;4.72;0.63;;;;;;;23.16;39.46;101183.50;5015279;28;96647;-35
2022/05/11 10:38:31;;;;;;;5.93;1.05;;;;;;;23.10;40.50;101195.25;5013941;28;96768;-35
2022/05/11 10:41:18;;;;;;;6.63;0.70;;;;;;;23.07;39.59;101193.69;5014459;28;99402;-35
2022/05/11 10:44:04;;;;;;;1.20;0.47;;;;;;;23.29;40.00;101180.28;5047142;27;100932;-35
2022/05/11 10:47:02;;;;;;;3.70;0.43;;;;;;;23.27;40.41;101191.50;5047531;27;96631;-35
2022/05/11 10:49:39;;;;;;;3.08;0.73;;;;;;;23.59;39.55;101191.72;4991752;28;96788;-35
2022/05/11 10:52:42;;;;;;;3.60;1.92;;;;;;;23.38;38.25;101190.28;5030181;28;100906;-34
2022/05/11 10:55:25;;;;;;;2.40;0.57;;;;;;;23.44;38.58;101188.75;5014498;28;97270;-35
2022/05/11 10:58:21;;;;;;;1.27;0.47;;;;;;;23.66;39.21;101190.84;5029633;27;96756;-35
2022/05/11 11:00:51;;;;;;;6.40;1.05;;;;;;;23.56;38.95;101192.06;5015123;28;96578;-35
2022/05/11 11:03:32;;;;;;;1.03;0.30;;;;;;;23.28;35.39;101179.38;5012868;28;99053;-35
2022/05/11 11:09:11;;;;;;;4.82;0.73;;;;;;;23.56;37.65;101181.84;5013785;28;96711;-35
2022/05/11 11:11:58;;;;;;;3.78;1.20;;;;;;;23.75;38.54;101186.22;5012465;28;96715;-35
2022/05/11 11:14:30;;;;;;;5.75;1.02;;;;;;;23.92;38.28;101178.78;5014585;28;98051;-35
2022/05/11 11:16:57;;;;;;;2.92;0.80;;;;;;;24.11;36.91;101164.56;5014408;28;99150;-35
2022/05/11 11:19:24;;;;;;;2.38;0.63;;;;;;;24.20;37.57;101173.75;4996775;28;96695;-35
2022/05/11 11:21:50;;;;;;;1.83;0.60;;;;;;;24.07;37.81;101162.31;5014331;28;96840;-35
2022/05/11 11:24:23;;;;;;;0.90;0.43;;;;;;;23.98;35.56;101160.59;5013792;28;97915;-35
2022/05/11 11:27:02;;;;;;;7.35;0.90;;;;;;;24.10;36.18;101160.09;4996214;28;100216;-35
2022/05/11 11:29:39;;;;;;;4.88;0.82;;;;;;;24.21;36.46;101149.69;4996351;28;96602;-35
2022/05/11 11:32:11;;;;;;;4.13;0.80;;;;;;;24.23;37.25;101134.63;4996345;28;96782;-35
2022/05/11 11:34:42;;;;;;;3.83;0.82;;;;;;;24.27;36.29;101147.06;5013715;28;99443;-34
2022/05/11 11:37:30;;;;;;;6.83;0.90;;;;;;;24.39;35.91;101139.25;4995988;28;100669;-35
2022/05/11 11:39:57;;;;;;;2.90;0.70;;;;;;;24.44;37.26;101139.59;5014177;28;96760;-35
2022/05/11 11:42:38;;;;;;;4.88;0.93;;;;;;;24.62;37.03;101135.72;5014814;28;96855;-35
2022/05/11 11:45:29;;;;;;;7.82;1.30;;;;;;;24.70;36.34;101135.72;5013771;28;97367;-35
2022/05/11 11:48:02;;;;;;;4.45;1.10;;;;;;;24.74;36.55;101123.19;5013376;28;97437;-35
2022/05/11 11:50:49;;;;;;;5.38;1.10;;;;;;;24.73;36.43;101122.34;4995686;28;96689;-35
2022/05/11 11:53:32;;;;;;;3.88;1.00;;;;;;;24.59;37.45;101112.03;4996070;28;96714;-35
2022/05/11 11:56:25;;;;;;;5.13;1.42;;;;;;;24.69;37.02;101128.44;5013964;28;97550;-35
2022/05/11 11:59:05;;;;;;;8.38;1.50;;;;;;;24.45;36.88;101112.75;5013977;28;97825;-35
2022/05/11 12:01:37;;;;;;;4.03;1.55;;;;;;;23.86;37.40;101110.28;4996058;28;96598;-35
2022/05/11 12:04:11;;;;;;;3.50;1.20;;;;;;;23.85;38.40;101114.97;4996121;28;96832;-34
2022/05/11 12:15:14;;;;;;;3.70;1.08;;;;;;;24.05;38.67;101112.72;5017609;28;96609;-35
2022/05/11 12:17:41;;;;;;;;;;;;;;;24.20;38.66;101121.13;4998740;28;100984;-35